METAR AND TAF INFORMATION
METAR FOR UAOO
ADDS - METARS form results

(1739 UTC 24 September 2020)
Data provider http://aviationweather.gov/metar/data/
 
METAR text: UAOO 241700Z 04003MPS CAVOK 13/M03 Q1021 NOSIG RMK QFE754/1005
Conditions at: UAOO (KZYL-ORDA , KZ) observed 1700 UTC 24 September 2020
Temperature: 13.0°C (55°F)
Dewpoint: -3.0°C (27°F) [RH = 33%]
Pressure (altimeter): 30.15 inches Hg (1021.0 mb)
Winds: from the NE (40 degrees) at 7 MPH (6 knots; 3.1 m/s)
Visibility: 6 or more miles (10+ km)
Ceiling: ceiling and visibility are OK
Clouds: unknown
Weather: no significant weather observed at this time

Forecast for: UAOO (KZYL-ORDA , KZ)
Text: TAF UAOO 241700Z 2418/2503 04003MPS CAVOK
Forecast period: 1800 UTC 24 September 2020 to 0300 UTC 25 September 2020
Forecast type: FROM: standard forecast or significant change
Winds: from the NE (40 degrees) at 7 MPH (6 knots; 3.1 m/s)
Visibility: 6 or more miles (10+ km)
Ceiling: unknown
Clouds: missing
Weather: NSW  (no significant weather)

 AIRPORT MAP

 RUNWAY INFORMATION

 AIRPORT FREQUENCIES

 AIRPORT NEAR NAVIGATION AIDS



2018 Air Astana Virtual Airline